createdAt,value
2023-03-10T07:10:54.506Z,10.13
2023-03-10T07:15:48.059Z,9.33
2023-03-10T07:20:42.175Z,6.93
2023-03-10T07:25:37.317Z,6.47
2023-03-10T07:30:32.999Z,6.40
2023-03-10T07:35:26.668Z,8.43
2023-03-10T07:40:22.835Z,7.37
2023-03-10T07:45:16.325Z,6.67
2023-03-10T07:50:12.932Z,6.17
2023-03-10T07:55:07.296Z,5.10
2023-03-10T08:00:00.843Z,4.33
2023-03-10T08:04:54.553Z,3.77
2023-03-10T08:09:53.086Z,3.30
2023-03-10T08:14:46.549Z,3.37
2023-03-10T08:19:40.462Z,3.47
2023-03-10T08:24:34.008Z,3.53
2023-03-10T08:29:29.021Z,3.57
2023-03-10T08:34:23.447Z,3.40
2023-03-10T08:39:17.112Z,2.90
2023-03-10T08:44:15.193Z,3.53
2023-03-10T08:49:10.670Z,3.70
2023-03-10T08:54:04.907Z,3.67
2023-03-10T08:59:02.214Z,3.50
2023-03-10T09:03:55.942Z,3.70
2023-03-10T09:08:51.682Z,3.10
2023-03-10T09:13:45.219Z,3.10
2023-03-10T09:18:39.052Z,3.50
2023-03-10T09:23:32.768Z,3.63
2023-03-10T09:28:27.890Z,3.93
2023-03-10T09:33:23.116Z,4.40
2023-03-10T09:38:17.655Z,3.67
2023-03-10T09:43:16.783Z,4.30
2023-03-10T09:48:32.498Z,3.53
2023-03-10T09:53:50.447Z,2.90
2023-03-10T09:58:47.991Z,3.30
2023-03-10T10:03:53.137Z,3.53
2023-03-10T10:09:03.556Z,3.10
2023-03-10T10:14:33.031Z,4.87
2023-03-10T10:19:29.311Z,3.17
2023-03-10T10:24:23.405Z,3.50
2023-03-10T10:29:19.313Z,3.33
2023-03-10T10:34:22.020Z,3.17
2023-03-10T10:39:28.247Z,3.20
2023-03-10T10:44:22.399Z,3.20
2023-03-10T10:49:23.403Z,3.60
2023-03-10T10:54:29.300Z,3.13
2023-03-10T10:59:24.539Z,2.97
2023-03-10T11:04:18.359Z,3.10
2023-03-10T11:09:18.480Z,3.57
2023-03-10T11:14:31.101Z,4.10
2023-03-10T11:19:34.730Z,3.33
2023-03-10T11:24:35.745Z,3.40
2023-03-10T11:29:40.383Z,3.90
2023-03-10T11:34:37.728Z,4.10
2023-03-10T11:39:43.466Z,3.80
2023-03-10T11:44:43.163Z,3.57
2023-03-10T11:49:40.267Z,3.20
2023-03-10T11:54:37.452Z,3.60
2023-03-10T11:59:34.387Z,5.20
2023-03-10T12:04:33.104Z,4.37
2023-03-10T12:09:38.934Z,5.07
2023-03-10T12:14:33.390Z,4.27
2023-03-10T12:19:26.880Z,3.87
2023-03-10T12:24:44.829Z,4.33
2023-03-10T12:29:43.103Z,3.57
2023-03-10T12:34:37.073Z,3.50
2023-03-10T12:39:40.199Z,5.80
2023-03-10T12:44:55.440Z,3.23
2023-03-10T12:49:55.282Z,3.20
2023-03-10T12:55:16.721Z,3.50
2023-03-10T13:00:24.524Z,3.60
2023-03-10T13:05:23.696Z,3.25
2023-03-10T13:10:21.886Z,3.40
2023-03-10T13:15:25.314Z,3.53
2023-03-10T13:20:20.571Z,2.80
2023-03-10T13:25:15.895Z,3.20
2023-03-10T13:30:16.890Z,2.97
2023-03-10T13:35:36.002Z,3.30
2023-03-10T13:40:29.679Z,3.22
2023-03-10T13:45:28.627Z,2.60
2023-03-10T13:50:23.060Z,3.25
2023-03-10T13:55:18.934Z,3.17
2023-03-10T14:00:17.776Z,3.42
2023-03-10T14:05:39.744Z,3.10
2023-03-10T14:10:35.699Z,3.60
2023-03-10T14:15:33.461Z,3.47
2023-03-10T14:20:29.141Z,3.08
2023-03-10T14:25:24.431Z,3.80
2023-03-10T14:30:28.092Z,4.20
2023-03-10T14:35:23.168Z,3.22
2023-03-10T14:40:17.246Z,2.03
2023-03-10T14:45:24.433Z,2.58
2023-03-10T14:50:20.935Z,2.90
2023-03-10T14:55:14.884Z,2.70
2023-03-10T15:00:14.944Z,3.03
2023-03-10T15:05:09.170Z,3.83
2023-03-10T15:10:11.964Z,3.90
2023-03-10T15:15:07.202Z,3.93
2023-03-10T15:20:00.775Z,4.50
2023-03-10T15:24:55.400Z,4.23
2023-03-10T15:29:50.669Z,4.47
2023-03-10T15:34:44.590Z,3.35
2023-03-10T15:39:39.790Z,3.00
2023-03-10T15:44:37.156Z,3.17
2023-03-10T15:49:33.229Z,2.50
2023-03-10T15:54:29.034Z,2.97
2023-03-10T15:59:24.076Z,3.00
2023-03-10T16:04:22.135Z,3.07
2023-03-10T16:09:25.425Z,3.30
2023-03-10T16:14:26.725Z,2.87
2023-03-10T16:19:24.499Z,4.77
2023-03-10T16:24:23.532Z,3.87
2023-03-10T16:29:18.680Z,4.47
2023-03-10T16:34:15.593Z,4.90
2023-03-10T16:39:10.438Z,4.60
2023-03-10T16:44:16.551Z,6.67
2023-03-10T16:49:15.629Z,8.50
2023-03-10T16:54:26.028Z,7.77
2023-03-10T16:59:46.924Z,6.80
2023-03-10T17:04:57.319Z,7.80
2023-03-10T17:09:50.868Z,6.43
2023-03-10T17:20:32.221Z,7.73
2023-03-10T17:25:25.885Z,7.33
2023-03-10T17:30:23.707Z,7.20
2023-03-10T17:35:17.902Z,7.07
